Time;durP1;ratioP1;P1;durP2;ratioP2;P2;SDS_P1;SDS_P2;PMS_P1;PMS_P2;Temp;Humidity;BMP_temperature;BMP_pressure;BME280_temperature;BME280_humidity;BME280_pressure;Samples;Min_cycle;Max_cycle;Signal;HPM_P1;HPM_P2
2023/08/12 00:01:03;;;;;;;2.45;2.25;;;;;;;24.71;63.37;101447.94;5092008;28;20074;-77
2023/08/12 00:03:31;;;;;;;3.28;2.50;;;;;;;24.89;63.02;101447.66;5091777;28;20059;-77
2023/08/12 00:06:05;;;;;;;2.72;2.30;;;;;;;25.06;63.04;101455.75;5092662;28;20040;-77
2023/08/12 00:08:33;;;;;;;4.28;2.42;;;;;;;24.95;60.75;101447.06;5092161;28;20046;-77
2023/08/12 00:11:01;;;;;;;2.60;2.38;;;;;;;24.83;60.52;101447.13;5092069;28;20051;-77
2023/08/12 00:13:29;;;;;;;2.70;2.50;;;;;;;24.74;62.67;101446.41;5092581;28;20390;-76
2023/08/12 00:15:57;;;;;;;2.10;1.90;;;;;;;24.70;61.99;101438.72;5092075;28;20058;-77
2023/08/12 00:18:25;;;;;;;3.40;2.00;;;;;;;24.69;61.20;101439.09;5091670;28;20040;-77
2023/08/12 00:20:55;;;;;;;1.98;1.70;;;;;;;24.74;60.51;101444.44;5092169;28;20408;-77
2023/08/12 00:23:23;;;;;;;2.45;2.25;;;;;;;24.61;60.12;101435.28;5092283;28;20044;-77
2023/08/12 00:25:50;;;;;;;3.22;2.47;;;;;;;24.67;60.19;101431.06;5092082;28;20059;-77
2023/08/12 00:28:18;;;;;;;3.35;2.15;;;;;;;24.41;60.95;101435.13;5091304;28;20048;-77
2023/08/12 00:30:48;;;;;;;2.80;2.22;;;;;;;24.73;60.73;101428.81;5091751;28;20402;-76
2023/08/12 00:33:16;;;;;;;2.33;2.13;;;;;;;24.58;61.20;101435.19;5091726;28;20565;-77
2023/08/12 00:35:44;;;;;;;2.47;2.28;;;;;;;24.60;60.65;101436.47;5091662;28;20052;-77
2023/08/12 00:38:12;;;;;;;2.45;2.25;;;;;;;24.54;61.99;101426.69;5089401;28;20052;-75
2023/08/12 00:40:40;;;;;;;2.30;2.10;;;;;;;24.54;62.44;101432.28;5071800;28;20055;-77
2023/08/12 00:43:09;;;;;;;2.35;2.10;;;;;;;24.47;62.58;101432.06;5070405;28;20045;-77
2023/08/12 00:45:37;;;;;;;2.97;2.53;;;;;;;24.40;63.46;101427.88;5088251;28;20052;-77
2023/08/12 00:48:07;;;;;;;2.95;2.05;;;;;;;24.42;64.18;101427.53;5090368;28;20067;-77
2023/08/12 00:50:39;;;;;;;6.05;2.30;;;;;;;24.34;64.44;101432.09;5091378;28;20047;-77
2023/08/12 00:53:07;;;;;;;2.55;2.35;;;;;;;24.25;64.53;101440.63;5090368;28;20044;-77
2023/08/12 00:55:36;;;;;;;2.83;2.58;;;;;;;24.13;65.24;101430.31;5090892;28;20040;-77
2023/08/12 00:58:04;;;;;;;3.40;2.55;;;;;;;24.09;66.13;101429.38;5091253;28;20375;-77
2023/08/12 01:00:32;;;;;;;2.90;2.60;;;;;;;24.17;66.26;101430.41;5091926;28;20237;-77
2023/08/12 01:03:01;;;;;;;2.92;2.50;;;;;;;24.12;67.19;101428.69;5090026;28;20040;-77
2023/08/12 01:05:30;;;;;;;3.25;2.95;;;;;;;24.11;66.55;101429.88;5091378;28;20059;-77
2023/08/12 01:07:58;;;;;;;2.70;2.20;;;;;;;23.92;67.40;101418.44;5090856;28;20052;-77
2023/08/12 01:10:34;;;;;;;2.55;2.35;;;;;;;23.80;67.88;101434.03;5091406;28;20047;-77
2023/08/12 01:13:24;;;;;;;3.85;3.15;;;;;;;23.69;68.36;101427.28;5090657;28;20048;-77
2023/08/12 01:15:55;;;;;;;2.45;2.25;;;;;;;23.75;68.38;101425.91;5092948;28;20056;-77
2023/08/12 01:18:24;;;;;;;2.78;2.58;;;;;;;23.78;69.33;101425.22;5095210;28;20052;-77
2023/08/12 01:20:53;;;;;;;2.63;2.42;;;;;;;23.93;69.35;101420.88;5094387;28;20078;-77
2023/08/12 01:23:22;;;;;;;2.75;2.55;;;;;;;24.15;68.41;101421.56;5095089;28;20060;-76
2023/08/12 01:25:50;;;;;;;2.83;2.60;;;;;;;24.14;67.95;101426.34;5094874;28;20517;-76
2023/08/12 01:28:18;;;;;;;4.55;2.95;;;;;;;24.10;68.70;101413.44;5094319;28;20048;-77
2023/08/12 01:31:11;;;;;;;4.13;2.78;;;;;;;24.05;69.31;101408.84;5095169;28;20051;-77
2023/08/12 01:33:49;;;;;;;4.17;2.80;;;;;;;23.88;70.21;101419.16;5094617;28;20055;-77
2023/08/12 01:36:19;;;;;;;3.92;2.78;;;;;;;23.95;70.87;101414.94;5094443;28;20055;-77
2023/08/12 01:38:51;;;;;;;4.13;2.90;;;;;;;23.74;71.79;101404.72;5094818;28;20051;-77
2023/08/12 01:41:23;;;;;;;4.35;3.33;;;;;;;23.82;71.79;101406.59;5093026;28;20051;-77
2023/08/12 01:43:51;;;;;;;3.92;3.03;;;;;;;23.89;71.94;101401.22;5094907;28;20047;-76
2023/08/12 01:46:21;;;;;;;4.82;3.13;;;;;;;23.70;72.70;101403.81;5095152;28;20504;-77
2023/08/12 01:48:49;;;;;;;5.30;3.33;;;;;;;23.45;73.42;101390.66;5094755;28;20036;-76
2023/08/12 01:51:17;;;;;;;9.60;4.13;;;;;;;23.34;74.23;101393.09;5094124;28;20048;-76
2023/08/12 01:53:45;;;;;;;3.40;3.10;;;;;;;23.32;75.14;101398.19;5094445;28;20044;-77
2023/08/12 01:56:13;;;;;;;4.05;3.17;;;;;;;23.33;75.24;101399.03;5093350;28;20058;-77
2023/08/12 01:58:41;;;;;;;4.13;3.72;;;;;;;23.38;75.40;101395.19;5092760;28;20053;-77
2023/08/12 02:01:09;;;;;;;2.92;2.72;;;;;;;23.33;76.02;101394.28;5093358;28;20056;-77
2023/08/12 02:03:38;;;;;;;3.47;3.00;;;;;;;23.50;74.85;101397.97;5094717;28;20044;-76
2023/08/12 02:06:07;;;;;;;4.28;3.47;;;;;;;23.49;74.95;101399.13;5094610;28;20032;-77
2023/08/12 02:08:35;;;;;;;3.63;3.33;;;;;;;23.60;74.17;101403.09;5092914;28;20048;-76
2023/08/12 02:11:03;;;;;;;3.95;3.20;;;;;;;23.46;74.92;101391.47;5092202;28;20063;-77
2023/08/12 02:13:31;;;;;;;3.30;3.00;;;;;;;23.49;74.86;101391.59;5093804;28;20060;-76
2023/08/12 02:16:00;;;;;;;3.50;3.20;;;;;;;23.29;76.59;101390.50;5092254;28;20048;-76
2023/08/12 02:18:28;;;;;;;54.40;6.20;;;;;;;23.20;77.72;101379.44;5092572;28;20047;-77
2023/08/12 02:20:56;;;;;;;4.50;3.42;;;;;;;23.40;76.24;101387.28;5094232;28;20048;-77
2023/08/12 02:23:24;;;;;;;5.10;3.88;;;;;;;23.15;78.29;101382.47;5077051;28;20060;-77
2023/08/12 02:25:54;;;;;;;4.90;4.15;;;;;;;23.39;77.06;101389.25;5087674;28;20059;-77
2023/08/12 02:28:22;;;;;;;4.47;3.95;;;;;;;23.31;77.77;101376.22;5091838;28;20379;-76
2023/08/12 02:30:50;;;;;;;3.97;3.63;;;;;;;23.28;77.85;101374.91;5094235;28;20044;-77
2023/08/12 02:33:18;;;;;;;5.95;4.00;;;;;;;23.47;77.23;101382.72;5078064;28;20048;-76
2023/08/12 02:35:46;;;;;;;4.43;3.83;;;;;;;23.26;77.66;101374.44;5075155;28;20043;-77
2023/08/12 02:38:14;;;;;;;4.95;3.72;;;;;;;23.17;78.06;101382.13;5093871;28;20406;-76
2023/08/12 02:40:42;;;;;;;5.22;3.90;;;;;;;23.03;78.86;101374.06;5091940;28;20055;-77
2023/08/12 02:43:11;;;;;;;4.78;3.90;;;;;;;23.04;79.08;101376.53;5093840;28;20054;-77
2023/08/12 02:45:39;;;;;;;6.47;4.10;;;;;;;22.98;79.21;101375.13;5093136;28;20056;-75
2023/08/12 02:48:09;;;;;;;4.68;4.18;;;;;;;22.94;79.95;101371.38;5092025;28;20367;-77
2023/08/12 02:50:38;;;;;;;7.45;4.18;;;;;;;22.88;80.69;101361.59;5093061;28;20409;-76
2023/08/12 02:53:06;;;;;;;10.18;4.57;;;;;;;23.06;80.04;101368.59;5082716;28;20410;-75
2023/08/12 02:55:34;;;;;;;6.47;3.70;;;;;;;23.02;80.17;101364.06;5076934;28;20048;-75
2023/08/12 02:58:03;;;;;;;6.10;4.22;;;;;;;23.20;79.86;101365.47;5081705;28;20052;-75
2023/08/12 03:00:31;;;;;;;7.25;4.05;;;;;;;23.01;80.63;101370.81;5086087;28;20051;-76
2023/08/12 03:02:59;;;;;;;4.65;3.55;;;;;;;22.81;81.78;101365.78;5072687;28;20060;-77
2023/08/12 03:05:27;;;;;;;13.55;4.32;;;;;;;22.89;81.49;101361.25;5089551;28;20517;-76
2023/08/12 03:07:57;;;;;;;9.07;4.85;;;;;;;22.76;81.55;101365.16;5092665;28;20053;-76
2023/08/12 03:10:25;;;;;;;4.50;4.10;;;;;;;22.75;82.51;101356.00;5093525;28;20044;-76
2023/08/12 03:12:53;;;;;;;5.72;4.55;;;;;;;22.80;81.89;101358.56;5093148;28;20406;-76
2023/08/12 03:15:22;;;;;;;5.05;4.20;;;;;;;22.79;82.68;101347.75;5091198;28;20130;-76
2023/08/12 03:17:51;;;;;;;5.47;4.60;;;;;;;22.73;82.85;101355.50;5090902;28;20044;-76
2023/08/12 03:20:20;;;;;;;5.50;4.30;;;;;;;22.73;83.44;101349.94;5091486;28;20055;-77
2023/08/12 03:22:48;;;;;;;5.05;4.55;;;;;;;22.93;82.76;101350.22;5092527;28;20051;-76
2023/08/12 03:25:17;;;;;;;8.60;4.53;;;;;;;22.82;82.79;101353.44;5091499;28;20056;-76
2023/08/12 03:27:46;;;;;;;4.28;3.88;;;;;;;22.81;83.19;101351.81;5092216;28;20048;-76
2023/08/12 03:30:14;;;;;;;8.02;4.60;;;;;;;22.74;83.06;101351.59;5090538;28;20052;-75
2023/08/12 03:32:44;;;;;;;5.38;4.75;;;;;;;22.73;83.18;101349.13;5090690;28;20066;-77
2023/08/12 03:35:12;;;;;;;6.80;4.65;;;;;;;22.96;82.26;101355.09;5092668;28;20062;-77
2023/08/12 03:37:40;;;;;;;8.60;4.38;;;;;;;22.86;82.37;101352.78;5091178;28;20040;-77
2023/08/12 03:40:09;;;;;;;4.50;4.10;;;;;;;22.95;82.10;101357.09;5090743;28;20064;-77
2023/08/12 03:42:38;;;;;;;7.68;4.75;;;;;;;22.87;82.35;101357.19;5092675;28;20397;-77
2023/08/12 03:45:07;;;;;;;4.82;4.43;;;;;;;22.87;83.39;101354.41;5092716;28;20036;-77
2023/08/12 03:47:35;;;;;;;4.55;4.10;;;;;;;22.81;83.34;101359.38;5091401;28;20036;-77
2023/08/12 03:50:04;;;;;;;4.22;3.83;;;;;;;22.75;83.33;101364.38;5091615;28;20051;-77
2023/08/12 03:52:32;;;;;;;5.03;4.35;;;;;;;22.56;84.67;101367.66;5090293;28;20069;-77
2023/08/12 03:55:01;;;;;;;5.25;3.90;;;;;;;22.49;85.23;101365.41;5092849;28;20040;-77
2023/08/12 03:57:29;;;;;;;4.80;4.32;;;;;;;22.59;84.55;101368.97;5091838;28;20058;-76
2023/08/12 03:59:57;;;;;;;4.47;4.00;;;;;;;22.66;84.77;101361.66;5090431;28;20063;-76
2023/08/12 04:02:26;;;;;;;5.22;4.18;;;;;;;22.58;84.44;101370.91;5090852;28;20040;-76
2023/08/12 04:04:54;;;;;;;5.60;4.10;;;;;;;22.50;85.03;101355.91;5090595;28;20047;-77
2023/08/12 04:07:22;;;;;;;4.90;4.30;;;;;;;22.56;84.99;101356.50;5091976;28;20047;-76
2023/08/12 04:09:50;;;;;;;4.28;3.85;;;;;;;22.52;85.83;101363.94;5091973;28;20048;-77
2023/08/12 04:12:18;;;;;;;5.88;4.40;;;;;;;22.54;85.89;101364.41;5090954;28;20055;-77
2023/08/12 04:14:46;;;;;;;4.93;4.45;;;;;;;22.44;86.30;101364.81;5090503;28;20493;-77
2023/08/12 04:17:14;;;;;;;4.95;4.38;;;;;;;22.55;85.64;101366.03;5090242;28;20039;-77
2023/08/12 04:19:42;;;;;;;4.60;4.13;;;;;;;22.52;85.43;101367.53;5090749;28;20055;-76
2023/08/12 04:22:10;;;;;;;6.45;4.63;;;;;;;22.41;86.18;101364.34;5092077;28;20059;-76
2023/08/12 04:24:38;;;;;;;4.38;3.97;;;;;;;22.60;85.47;101368.63;5090920;28;20048;-76
2023/08/12 04:27:07;;;;;;;4.38;3.97;;;;;;;22.57;85.59;101368.50;5073712;28;20062;-77
2023/08/12 04:29:36;;;;;;;4.85;4.32;;;;;;;22.54;85.80;101365.22;5091605;28;20056;-76
2023/08/12 04:32:04;;;;;;;4.28;3.88;;;;;;;22.69;85.02;101372.13;5091028;28;20049;-76
2023/08/12 04:34:32;;;;;;;6.63;4.47;;;;;;;22.75;84.25;101369.94;5089995;28;20048;-77
2023/08/12 04:37:00;;;;;;;5.30;4.13;;;;;;;22.70;84.81;101367.38;5090453;28;20063;-76
2023/08/12 04:39:32;;;;;;;5.25;4.43;;;;;;;22.69;84.56;101360.97;5090303;28;20439;-77
2023/08/12 04:42:00;;;;;;;4.72;4.32;;;;;;;22.71;85.33;101360.63;5090367;28;20048;-77
2023/08/12 04:44:28;;;;;;;4.43;3.92;;;;;;;22.61;85.51;101361.88;5089713;28;20063;-76
2023/08/12 04:46:57;;;;;;;4.57;4.18;;;;;;;22.51;85.75;101360.31;5089964;28;20600;-76
2023/08/12 04:49:25;;;;;;;4.80;4.22;;;;;;;22.62;85.66;101360.72;5090864;28;20398;-76
2023/08/12 04:51:53;;;;;;;5.38;4.15;;;;;;;22.68;85.46;101364.91;5093072;28;20051;-77
2023/08/12 04:54:21;;;;;;;6.53;3.92;;;;;;;22.65;85.53;101359.22;5094122;28;20048;-77
2023/08/12 04:56:49;;;;;;;7.03;4.47;;;;;;;22.63;85.55;101362.34;5094939;28;20039;-77
2023/08/12 04:59:18;;;;;;;6.03;4.05;;;;;;;22.58;86.21;101364.53;5095169;28;20048;-77
2023/08/12 05:01:46;;;;;;;4.18;3.78;;;;;;;22.62;85.88;101359.91;5094429;28;20405;-76
2023/08/12 05:04:31;;;;;;;4.10;3.67;;;;;;;22.84;84.90;101366.22;5094172;28;20047;-77
2023/08/12 05:06:59;;;;;;;4.70;3.72;;;;;;;23.00;84.17;101364.41;5093725;28;20406;-76
2023/08/12 05:09:27;;;;;;;4.10;3.53;;;;;;;23.11;83.63;101366.75;5094152;28;20067;-76
2023/08/12 05:11:55;;;;;;;4.15;3.75;;;;;;;23.20;83.11;101361.88;5093561;28;20052;-76
2023/08/12 05:14:23;;;;;;;4.60;3.92;;;;;;;23.14;83.50;101368.84;5093529;28;20410;-76
2023/08/12 05:16:51;;;;;;;5.70;4.32;;;;;;;23.21;82.79;101363.50;5093610;28;20498;-77
2023/08/12 05:19:19;;;;;;;5.22;3.67;;;;;;;23.31;82.26;101363.06;5093806;28;20059;-77
2023/08/12 05:21:47;;;;;;;5.65;4.10;;;;;;;23.47;81.50;101362.38;5091944;28;20036;-76
2023/08/12 05:24:15;;;;;;;4.78;4.15;;;;;;;23.53;81.27;101368.53;5127400;27;20410;-77
2023/08/12 05:26:43;;;;;;;6.07;4.20;;;;;;;23.54;81.24;101367.34;5093837;28;20047;-76
2023/08/12 05:29:11;;;;;;;6.53;4.15;;;;;;;23.59;81.11;101367.94;5094564;28;20402;-76
2023/08/12 05:31:39;;;;;;;4.32;3.92;;;;;;;23.62;82.31;101369.22;5094041;28;20406;-77
2023/08/12 05:34:07;;;;;;;5.78;4.07;;;;;;;23.56;82.14;101374.22;5093281;28;20036;-77
2023/08/12 05:36:36;;;;;;;4.55;4.15;;;;;;;23.55;82.66;101364.22;5094866;28;20052;-75
2023/08/12 05:39:04;;;;;;;7.55;4.15;;;;;;;23.72;81.61;101365.97;5094654;28;20389;-75
2023/08/12 05:41:32;;;;;;;4.60;4.00;;;;;;;23.81;80.96;101373.41;5091579;28;20056;-76
2023/08/12 05:44:00;;;;;;;4.28;3.88;;;;;;;23.89;80.95;101378.84;5095207;28;20048;-76
2023/08/12 05:46:28;;;;;;;4.35;3.95;;;;;;;24.02;80.81;101378.81;5094981;28;20044;-77
2023/08/12 05:48:56;;;;;;;3.97;3.50;;;;;;;24.02;80.76;101376.84;5094951;28;20036;-76
2023/08/12 05:51:24;;;;;;;4.20;3.75;;;;;;;24.19;78.91;101376.94;5094471;28;20066;-76
2023/08/12 05:53:55;;;;;;;5.95;3.58;;;;;;;24.38;77.79;101371.50;5091610;28;20064;-76
2023/08/12 05:56:23;;;;;;;5.85;3.63;;;;;;;24.46;76.89;101366.09;5086103;28;20051;-77
2023/08/12 05:58:51;;;;;;;4.95;3.97;;;;;;;24.50;76.31;101376.25;5094627;28;20490;-77
2023/08/12 06:01:19;;;;;;;4.82;3.35;;;;;;;24.54;76.68;101373.53;5093673;28;20044;-76
2023/08/12 06:03:48;;;;;;;5.90;3.95;;;;;;;24.69;75.95;101366.34;5094447;28;20040;-76
2023/08/12 06:06:16;;;;;;;3.65;3.28;;;;;;;24.80;75.02;101372.22;5093653;28;20430;-76
2023/08/12 06:08:45;;;;;;;3.95;3.58;;;;;;;24.94;73.73;101372.63;5093846;28;20056;-75
2023/08/12 06:11:13;;;;;;;5.05;3.22;;;;;;;24.91;74.10;101367.75;5087535;28;20051;-75
2023/08/12 06:13:42;;;;;;;3.40;3.10;;;;;;;25.14;73.06;101367.13;5104584;27;20044;-76
2023/08/12 06:16:10;;;;;;;4.18;3.30;;;;;;;25.23;72.36;101362.16;5093808;28;20579;-76
2023/08/12 06:18:39;;;;;;;5.38;3.47;;;;;;;25.32;71.66;101373.16;5088630;28;20040;-76
2023/08/12 06:21:08;;;;;;;3.80;3.33;;;;;;;25.41;71.60;101370.16;5088140;28;20048;-77
2023/08/12 06:23:36;;;;;;;3.17;2.97;;;;;;;25.46;70.78;101369.91;5083206;28;20460;-77
2023/08/12 06:26:05;;;;;;;5.38;3.35;;;;;;;25.46;72.09;101375.50;5090154;28;20044;-76
2023/08/12 06:28:33;;;;;;;3.80;3.35;;;;;;;25.49;70.47;101374.78;5074059;28;20059;-77
2023/08/12 06:31:03;;;;;;;3.70;3.40;;;;;;;25.71;70.19;101375.28;5082300;28;20045;-77
2023/08/12 06:33:36;;;;;;;3.90;3.28;;;;;;;25.76;69.47;101382.63;5081120;28;20051;-77
2023/08/12 06:36:04;;;;;;;3.25;2.95;;;;;;;25.76;67.33;101371.41;5092961;28;20059;-76
2023/08/12 06:38:33;;;;;;;3.70;3.30;;;;;;;25.80;66.99;101379.91;5091329;28;20040;-77
2023/08/12 06:41:02;;;;;;;5.80;3.63;;;;;;;25.89;67.47;101370.09;5078932;28;20037;-76
2023/08/12 06:43:31;;;;;;;3.20;2.90;;;;;;;25.89;66.24;101366.47;5083474;28;20051;-77
2023/08/12 06:46:02;;;;;;;4.82;3.13;;;;;;;25.94;66.14;101365.41;5083775;28;20040;-74
2023/08/12 06:48:31;;;;;;;5.68;3.63;;;;;;;26.11;66.13;101364.97;5094100;28;20406;-76
2023/08/12 06:51:04;;;;;;;5.28;2.92;;;;;;;26.29;64.54;101370.13;5092720;28;20391;-75
2023/08/12 06:53:32;;;;;;;7.03;3.25;;;;;;;26.44;65.25;101365.63;5088725;28;20133;-75
2023/08/12 06:56:00;;;;;;;6.18;3.00;;;;;;;26.47;61.82;101373.31;5081078;28;20044;-75
2023/08/12 06:58:29;;;;;;;3.78;2.80;;;;;;;26.52;63.60;101373.00;5087715;28;20048;-75
2023/08/12 07:00:59;;;;;;;3.28;2.70;;;;;;;26.59;60.69;101365.91;5074342;28;20064;-76
2023/08/12 07:03:28;;;;;;;4.55;2.85;;;;;;;26.66;59.97;101372.47;5076931;28;20482;-89
2023/08/12 07:05:57;;;;;;;2.60;2.40;;;;;;;26.67;58.29;101376.91;5058556;28;20055;-85
2023/08/12 07:18:07;;;;;;;2.92;2.10;;;;;;;26.98;55.66;101373.47;5081094;28;20403;-84
2023/08/12 07:20:36;;;;;;;2.35;2.15;;;;;;;27.10;57.15;101376.06;5077740;28;20044;-89
2023/08/12 07:23:04;;;;;;;4.15;2.45;;;;;;;27.05;56.77;101368.78;5074768;28;20048;-86
2023/08/12 07:25:33;;;;;;;3.35;2.50;;;;;;;27.18;56.83;101368.56;5080184;28;20048;-89
2023/08/12 07:28:02;;;;;;;2.75;2.50;;;;;;;27.17;58.03;101372.59;5090121;28;20075;-85
2023/08/12 07:30:30;;;;;;;4.03;2.92;;;;;;;27.21;57.39;101365.81;5072949;28;20048;-87
2023/08/12 07:32:59;;;;;;;2.67;2.30;;;;;;;27.31;56.80;101370.00;5075584;28;20045;-90
2023/08/12 07:35:27;;;;;;;3.50;2.60;;;;;;;27.35;57.10;101376.50;5070289;28;20079;-88
2023/08/12 07:37:56;;;;;;;3.17;2.60;;;;;;;27.43;57.84;101370.97;5081173;28;20041;-89
2023/08/12 07:40:24;;;;;;;3.40;3.05;;;;;;;27.42;57.20;101380.59;5078268;28;20110;-90
2023/08/12 07:42:53;;;;;;;3.88;2.80;;;;;;;27.42;56.70;101384.19;5085711;28;20047;-88
2023/08/12 07:45:24;;;;;;;2.75;2.55;;;;;;;27.50;56.10;101368.25;5087809;28;20051;-89
2023/08/12 07:47:53;;;;;;;2.70;2.50;;;;;;;27.56;56.84;101371.56;5077656;28;20071;-87
2023/08/12 07:50:22;;;;;;;5.78;2.42;;;;;;;27.69;56.32;101380.63;5073024;28;20040;-88
2023/08/12 07:52:51;;;;;;;2.95;2.67;;;;;;;27.69;55.82;101375.81;5076941;28;20098;-84
2023/08/12 07:55:20;;;;;;;3.42;2.67;;;;;;;27.62;56.14;101365.25;5075982;28;20059;-83
2023/08/12 07:57:48;;;;;;;2.80;2.15;;;;;;;27.63;53.25;101375.31;5076996;28;20040;-87
2023/08/12 08:00:17;;;;;;;4.32;2.30;;;;;;;27.69;54.93;101375.00;5079456;28;20056;-84
2023/08/12 08:02:48;;;;;;;10.27;2.80;;;;;;;27.70;52.85;101371.81;5083778;28;20063;-87
2023/08/12 08:05:16;;;;;;;4.72;2.30;;;;;;;27.76;53.62;101369.50;5087855;28;20055;-86
2023/08/12 08:07:45;;;;;;;4.18;2.67;;;;;;;27.86;53.66;101380.06;5079952;28;20036;-87
2023/08/12 08:10:13;;;;;;;5.25;2.78;;;;;;;27.98;54.00;101373.41;5077716;28;20040;-88
2023/08/12 08:12:42;;;;;;;6.05;2.63;;;;;;;27.88;54.01;101379.69;5085712;28;20071;-88
2023/08/12 08:15:11;;;;;;;6.18;2.55;;;;;;;27.96;52.92;101372.94;5085090;28;20040;-90
2023/08/12 08:17:39;;;;;;;3.38;2.38;;;;;;;28.08;53.44;101380.34;5085084;28;20398;-87
2023/08/12 08:20:10;;;;;;;5.18;2.20;;;;;;;28.15;52.58;101385.28;5075136;28;20557;-86
2023/08/12 08:22:39;;;;;;;2.75;2.47;;;;;;;28.19;52.48;101374.06;5085422;28;20063;-88
2023/08/12 08:25:07;;;;;;;2.33;2.13;;;;;;;28.15;52.96;101374.81;5082558;28;20044;-81
2023/08/12 08:27:36;;;;;;;2.40;2.10;;;;;;;28.25;52.42;101369.75;5078584;28;20399;-87
2023/08/12 08:30:06;;;;;;;3.17;2.42;;;;;;;28.19;51.34;101376.88;5091523;28;20984;-88
2023/08/12 08:32:35;;;;;;;2.33;2.03;;;;;;;28.28;52.22;101383.84;5087691;28;20044;-87
2023/08/12 08:35:03;;;;;;;3.42;2.47;;;;;;;28.40;51.53;101379.94;5090418;28;20501;-89
2023/08/12 08:37:32;;;;;;;2.95;2.03;;;;;;;28.35;52.27;101383.09;5088512;28;20047;-88
2023/08/12 08:40:00;;;;;;;4.47;2.78;;;;;;;28.44;52.92;101378.00;5053535;28;20049;-89
2023/08/12 08:42:29;;;;;;;4.70;2.65;;;;;;;28.35;51.03;101376.69;5061698;28;20071;-87
2023/08/12 08:45:04;;;;;;;4.88;2.40;;;;;;;28.27;50.67;101375.78;5075683;28;20106;-84
2023/08/12 08:47:33;;;;;;;3.42;3.13;;;;;;;28.43;52.66;101373.56;5075436;28;20044;-87
2023/08/12 08:50:03;;;;;;;2.58;2.38;;;;;;;28.37;53.88;101369.47;5072441;28;20037;-87
2023/08/12 08:52:32;;;;;;;3.40;3.10;;;;;;;28.40;54.26;101368.69;5079025;28;20078;-86
2023/08/12 08:55:01;;;;;;;3.75;2.40;;;;;;;28.52;53.07;101366.81;5084728;28;20055;-88
2023/08/12 08:57:35;;;;;;;5.20;2.80;;;;;;;28.53;53.65;101371.22;5081634;28;20048;-88
2023/08/12 09:00:14;;;;;;;3.55;2.45;;;;;;;28.62;53.08;101363.31;5071090;28;20053;-89
2023/08/12 09:02:50;;;;;;;4.72;2.85;;;;;;;28.65;53.09;101362.53;5074617;28;20041;-88
2023/08/12 09:05:20;;;;;;;5.30;2.90;;;;;;;28.72;51.58;101372.25;5080118;28;20094;-90
2023/08/12 09:07:51;;;;;;;2.80;2.47;;;;;;;28.79;52.06;101367.47;5089025;28;20040;-90
2023/08/12 09:10:21;;;;;;;4.20;2.72;;;;;;;28.59;53.17;101363.28;5057294;28;20052;-87
2023/08/12 09:12:52;;;;;;;3.28;2.97;;;;;;;28.63;52.99;101375.38;5085402;28;20382;-81
2023/08/12 09:15:21;;;;;;;3.55;2.42;;;;;;;28.72;52.97;101366.63;5085185;28;20044;-86
2023/08/12 09:17:49;;;;;;;2.90;2.53;;;;;;;28.69;52.42;101363.38;5081462;28;20048;-88
2023/08/12 09:20:18;;;;;;;3.22;2.60;;;;;;;28.80;50.54;101365.50;5081722;28;20048;-86
2023/08/12 09:22:57;;;;;;;2.78;2.45;;;;;;;28.88;52.11;101358.75;5088138;28;20119;-91
2023/08/12 09:25:29;;;;;;;3.83;3.05;;;;;;;29.04;51.82;101360.50;5075479;28;20048;-89
2023/08/12 09:28:01;;;;;;;2.58;2.38;;;;;;;29.09;52.26;101346.84;5071514;28;20040;-88
2023/08/12 09:30:33;;;;;;;2.83;2.53;;;;;;;29.23;50.58;101351.78;5077916;28;20364;-89
2023/08/12 09:33:06;;;;;;;5.32;3.08;;;;;;;29.12;51.14;101353.72;5090285;28;20406;-87
2023/08/12 09:35:40;;;;;;;3.97;2.85;;;;;;;29.34;51.31;101356.69;5089893;28;20403;-89
2023/08/12 09:38:13;;;;;;;4.20;3.53;;;;;;;29.35;50.95;101358.31;5092749;28;20414;-89
2023/08/12 09:40:42;;;;;;;3.10;2.58;;;;;;;29.38;51.28;101357.53;5094621;28;20044;-86
2023/08/12 09:43:17;;;;;;;4.70;2.90;;;;;;;29.51;50.85;101360.84;5095311;28;20681;-89
2023/08/12 09:45:50;;;;;;;4.05;2.90;;;;;;;29.45;51.86;101345.50;5094829;28;20692;-89
2023/08/12 09:48:22;;;;;;;3.00;2.67;;;;;;;29.30;51.45;101355.84;5094753;28;20048;-88
2023/08/12 09:50:50;;;;;;;3.08;2.78;;;;;;;29.42;51.50;101352.72;5088330;28;20032;-88
2023/08/12 09:53:19;;;;;;;3.05;2.53;;;;;;;29.46;50.91;101356.38;5072253;28;20041;-88
2023/08/12 09:55:49;;;;;;;3.10;2.80;;;;;;;29.47;51.52;101349.53;5091878;28;20067;-88
2023/08/12 09:58:19;;;;;;;2.60;2.35;;;;;;;29.52;50.41;101339.94;5079311;28;20052;-88
2023/08/12 10:00:48;;;;;;;3.10;2.72;;;;;;;29.42;49.85;101346.28;5059963;28;20052;-90
2023/08/12 10:03:19;;;;;;;2.85;2.47;;;;;;;29.57;50.83;101347.22;5067805;28;20048;-88
2023/08/12 10:05:48;;;;;;;3.85;2.65;;;;;;;29.70;51.01;101342.84;5088173;28;20047;-86
2023/08/12 10:08:22;;;;;;;3.15;2.85;;;;;;;29.73;50.56;101333.63;5087622;28;20052;-90
2023/08/12 10:11:06;;;;;;;2.80;2.60;;;;;;;29.79;51.34;101334.03;5068872;28;20051;-91
2023/08/12 10:18:47;;;;;;;4.32;3.05;;;;;;;29.84;50.52;101325.19;5070618;28;20052;-90
2023/08/12 10:21:41;;;;;;;2.85;2.63;;;;;;;29.90;51.47;101326.44;5080450;28;20044;-85
2023/08/12 10:24:37;;;;;;;3.42;3.13;;;;;;;30.13;50.52;101325.34;5075433;28;20051;-90
2023/08/12 10:28:03;;;;;;;3.85;3.25;;;;;;;30.15;50.11;101331.38;5075851;28;20064;-89
2023/08/12 10:30:45;;;;;;;3.08;2.80;;;;;;;30.21;50.09;101309.25;5093156;28;20052;-92
2023/08/12 10:33:54;;;;;;;4.55;3.20;;;;;;;30.20;50.36;101310.41;5090738;28;20056;-89
2023/08/12 10:36:39;;;;;;;3.90;3.00;;;;;;;30.14;50.50;101306.38;5094544;28;20068;-92
2023/08/12 10:40:23;;;;;;;3.30;3.00;;;;;;;30.07;49.96;101297.88;5091121;28;20048;-94
2023/08/12 10:44:05;;;;;;;;;;;;;;;;;;;;;
2023/08/12 10:48:24;;;;;;;3.63;2.78;;;;;;;30.25;49.80;101284.63;4993766;28;20057;-88
2023/08/12 10:51:19;;;;;;;3.55;2.78;;;;;;;30.49;49.91;101285.06;5023429;28;20070;-87
2023/08/12 10:54:34;;;;;;;2.60;2.40;;;;;;;30.66;49.74;101289.13;5096624;27;20596;-88
2023/08/12 10:57:47;;;;;;;3.00;2.70;;;;;;;30.77;48.70;101277.03;5094618;28;20048;-91
2023/08/12 11:00:29;;;;;;;2.80;2.60;;;;;;;30.68;49.32;101280.25;5093273;28;20053;-86
2023/08/12 11:03:42;;;;;;;3.67;3.38;;;;;;;30.56;50.41;101270.16;5092983;28;20055;-84
2023/08/12 11:07:00;;;;;;;3.30;3.00;;;;;;;30.81;49.98;101275.03;5088975;28;20040;-86
2023/08/12 11:10:12;;;;;;;3.08;2.50;;;;;;;30.92;49.60;101270.19;5092858;28;20048;-83
2023/08/12 11:16:13;;;;;;;;;;;;;;;31.15;49.29;101259.63;5084538;28;20041;-86
2023/08/12 11:19:01;;;;;;;3.83;3.03;;;;;;;31.34;48.96;101255.59;5098961;28;19924;-87
2023/08/12 11:21:37;;;;;;;4.13;2.88;;;;;;;31.45;48.84;101255.53;5087520;28;20402;-86
2023/08/12 11:24:33;;;;;;;2.80;2.60;;;;;;;31.45;47.20;101255.53;5089638;28;20044;-87
2023/08/12 11:27:10;;;;;;;3.17;2.88;;;;;;;31.61;48.95;101255.06;5085256;28;20052;-87
2023/08/12 11:30:00;;;;;;;4.90;2.85;;;;;;;31.67;47.92;101264.78;5081446;28;20044;-91
2023/08/12 11:32:46;;;;;;;3.65;3.15;;;;;;;31.40;48.43;101253.13;5093254;28;20048;-87
2023/08/12 11:35:34;;;;;;;3.20;2.88;;;;;;;31.52;49.00;101241.38;5076437;28;20056;-86
2023/08/12 11:38:07;;;;;;;7.63;3.08;;;;;;;31.53;48.32;101245.00;5086905;28;20040;-81
2023/08/12 11:40:44;;;;;;;2.67;2.47;;;;;;;31.53;48.27;101245.00;5089609;28;20477;-88
2023/08/12 11:43:22;;;;;;;3.13;2.80;;;;;;;31.61;49.31;101240.94;5093104;28;20052;-87
2023/08/12 11:45:59;;;;;;;2.72;2.53;;;;;;;31.66;47.78;101251.03;5094742;28;20052;-88
2023/08/12 11:48:38;;;;;;;3.72;3.22;;;;;;;31.72;46.89;101246.56;5083810;28;20062;-88
2023/08/12 11:51:15;;;;;;;4.22;3.10;;;;;;;31.66;47.88;101248.19;5096572;28;20040;-88
2023/08/12 11:53:58;;;;;;;3.90;2.92;;;;;;;31.88;48.22;101243.25;5096374;28;20533;-86
2023/08/12 11:56:48;;;;;;;4.88;2.95;;;;;;;31.82;48.18;101242.88;5091484;28;20044;-86
2023/08/12 11:59:39;;;;;;;2.83;2.63;;;;;;;31.82;48.65;101240.03;5070694;28;20045;-87
2023/08/12 12:02:27;;;;;;;3.38;2.50;;;;;;;32.01;46.80;101226.63;5074256;28;20044;-83
2023/08/12 12:05:18;;;;;;;4.70;3.60;;;;;;;32.00;46.47;101225.81;5086406;28;20065;-82
2023/08/12 12:08:24;;;;;;;3.25;2.92;;;;;;;32.14;47.79;101222.06;5090208;28;20067;-81
2023/08/12 12:11:30;;;;;;;2.72;2.53;;;;;;;32.13;46.60;101225.31;5091401;28;20044;-79